sensor_id;sensor_type;location;lat;lon;timestamp;P1;durP1;ratioP1;P2;durP2;ratioP2
72205;SDS011;60111;48.286;7.812;2022-07-29T00:01:39;10.28;;;5.55;;
72205;SDS011;60111;48.286;7.812;2022-07-29T00:04:11;8.38;;;5.50;;
72205;SDS011;60111;48.286;7.812;2022-07-29T00:06:44;10.15;;;5.72;;
72205;SDS011;60111;48.286;7.812;2022-07-29T00:09:17;6.37;;;4.92;;
72205;SDS011;60111;48.286;7.812;2022-07-29T00:11:50;6.97;;;5.33;;
72205;SDS011;60111;48.286;7.812;2022-07-29T00:14:23;8.08;;;5.62;;
72205;SDS011;60111;48.286;7.812;2022-07-29T00:16:55;6.70;;;5.00;;
72205;SDS011;60111;48.286;7.812;2022-07-29T00:19:28;6.28;;;5.17;;
72205;SDS011;60111;48.286;7.812;2022-07-29T00:22:01;7.40;;;5.08;;
72205;SDS011;60111;48.286;7.812;2022-07-29T00:24:33;6.95;;;5.45;;
72205;SDS011;60111;48.286;7.812;2022-07-29T00:27:06;7.83;;;5.65;;
72205;SDS011;60111;48.286;7.812;2022-07-29T00:29:39;8.50;;;6.10;;
72205;SDS011;60111;48.286;7.812;2022-07-29T00:32:11;8.37;;;6.50;;
72205;SDS011;60111;48.286;7.812;2022-07-29T00:34:44;6.83;;;5.65;;
72205;SDS011;60111;48.286;7.812;2022-07-29T00:37:35;8.23;;;5.27;;
72205;SDS011;60111;48.286;7.812;2022-07-29T00:40:08;5.67;;;5.08;;
72205;SDS011;60111;48.286;7.812;2022-07-29T00:42:45;8.63;;;5.17;;
72205;SDS011;60111;48.286;7.812;2022-07-29T00:45:19;7.03;;;4.90;;
72205;SDS011;60111;48.286;7.812;2022-07-29T00:50:24;5.70;;;4.78;;
72205;SDS011;60111;48.286;7.812;2022-07-29T00:52:58;5.50;;;4.78;;
72205;SDS011;60111;48.286;7.812;2022-07-29T00:55:31;11.60;;;4.97;;
72205;SDS011;60111;48.286;7.812;2022-07-29T00:58:04;6.25;;;4.75;;
72205;SDS011;60111;48.286;7.812;2022-07-29T01:00:37;6.78;;;4.58;;
72205;SDS011;60111;48.286;7.812;2022-07-29T01:03:11;5.20;;;4.60;;
72205;SDS011;60111;48.286;7.812;2022-07-29T01:05:44;6.30;;;4.70;;
72205;SDS011;60111;48.286;7.812;2022-07-29T01:08:17;5.70;;;4.57;;
72205;SDS011;60111;48.286;7.812;2022-07-29T01:10:51;4.80;;;4.22;;
72205;SDS011;60111;48.286;7.812;2022-07-29T01:13:25;7.50;;;4.50;;
72205;SDS011;60111;48.286;7.812;2022-07-29T01:16:01;4.80;;;3.97;;
72205;SDS011;60111;48.286;7.812;2022-07-29T01:18:36;6.15;;;4.60;;
72205;SDS011;60111;48.286;7.812;2022-07-29T01:26:59;8.05;;;4.37;;
72205;SDS011;60111;48.286;7.812;2022-07-29T01:29:44;5.35;;;4.50;;
72205;SDS011;60111;48.286;7.812;2022-07-29T01:32:18;4.60;;;4.20;;
72205;SDS011;60111;48.286;7.812;2022-07-29T01:38:06;6.75;;;4.67;;
72205;SDS011;60111;48.286;7.812;2022-07-29T01:40:47;5.67;;;4.70;;
72205;SDS011;60111;48.286;7.812;2022-07-29T01:43:31;5.25;;;4.15;;
72205;SDS011;60111;48.286;7.812;2022-07-29T01:46:05;6.47;;;4.65;;
72205;SDS011;60111;48.286;7.812;2022-07-29T01:48:47;4.92;;;4.50;;
72205;SDS011;60111;48.286;7.812;2022-07-29T01:51:24;6.60;;;4.53;;
72205;SDS011;60111;48.286;7.812;2022-07-29T01:54:07;5.65;;;4.78;;
72205;SDS011;60111;48.286;7.812;2022-07-29T01:56:39;6.08;;;4.70;;
72205;SDS011;60111;48.286;7.812;2022-07-29T01:59:15;4.67;;;4.17;;
72205;SDS011;60111;48.286;7.812;2022-07-29T02:01:50;6.25;;;4.60;;
72205;SDS011;60111;48.286;7.812;2022-07-29T02:04:25;6.20;;;4.57;;
72205;SDS011;60111;48.286;7.812;2022-07-29T02:07:01;4.70;;;4.30;;
72205;SDS011;60111;48.286;7.812;2022-07-29T02:09:36;5.07;;;4.57;;
72205;SDS011;60111;48.286;7.812;2022-07-29T02:12:11;4.67;;;4.28;;
72205;SDS011;60111;48.286;7.812;2022-07-29T02:14:47;4.50;;;4.10;;
72205;SDS011;60111;48.286;7.812;2022-07-29T02:17:25;6.12;;;4.20;;
72205;SDS011;60111;48.286;7.812;2022-07-29T02:20:05;5.65;;;4.37;;
72205;SDS011;60111;48.286;7.812;2022-07-29T02:22:40;5.30;;;4.55;;
72205;SDS011;60111;48.286;7.812;2022-07-29T02:25:15;7.20;;;4.63;;
72205;SDS011;60111;48.286;7.812;2022-07-29T02:27:50;7.07;;;4.70;;
72205;SDS011;60111;48.286;7.812;2022-07-29T02:30:23;5.62;;;4.30;;
72205;SDS011;60111;48.286;7.812;2022-07-29T02:32:58;5.33;;;4.22;;
72205;SDS011;60111;48.286;7.812;2022-07-29T02:35:32;4.95;;;4.25;;
72205;SDS011;60111;48.286;7.812;2022-07-29T02:38:04;5.83;;;4.30;;
72205;SDS011;60111;48.286;7.812;2022-07-29T02:40:58;8.13;;;4.17;;
72205;SDS011;60111;48.286;7.812;2022-07-29T02:43:36;6.97;;;4.47;;
72205;SDS011;60111;48.286;7.812;2022-07-29T02:46:16;6.47;;;4.45;;
72205;SDS011;60111;48.286;7.812;2022-07-29T02:48:56;6.00;;;4.10;;
72205;SDS011;60111;48.286;7.812;2022-07-29T02:51:25;4.65;;;4.20;;
72205;SDS011;60111;48.286;7.812;2022-07-29T02:54:06;10.10;;;4.80;;
72205;SDS011;60111;48.286;7.812;2022-07-29T02:56:41;5.62;;;5.00;;
72205;SDS011;60111;48.286;7.812;2022-07-29T03:01:49;4.95;;;4.45;;
72205;SDS011;60111;48.286;7.812;2022-07-29T03:04:23;6.23;;;4.50;;
72205;SDS011;60111;48.286;7.812;2022-07-29T03:06:59;6.83;;;5.12;;
72205;SDS011;60111;48.286;7.812;2022-07-29T03:09:32;5.73;;;4.83;;
72205;SDS011;60111;48.286;7.812;2022-07-29T03:12:06;7.97;;;4.80;;
72205;SDS011;60111;48.286;7.812;2022-07-29T03:14:39;6.60;;;5.43;;
72205;SDS011;60111;48.286;7.812;2022-07-29T03:17:12;6.15;;;5.05;;
72205;SDS011;60111;48.286;7.812;2022-07-29T03:19:45;5.05;;;4.55;;
72205;SDS011;60111;48.286;7.812;2022-07-29T03:22:19;7.42;;;5.50;;
72205;SDS011;60111;48.286;7.812;2022-07-29T03:24:52;6.75;;;5.20;;
72205;SDS011;60111;48.286;7.812;2022-07-29T03:27:24;9.83;;;5.07;;
72205;SDS011;60111;48.286;7.812;2022-07-29T03:29:57;7.43;;;5.17;;
72205;SDS011;60111;48.286;7.812;2022-07-29T03:32:29;5.92;;;4.97;;
72205;SDS011;60111;48.286;7.812;2022-07-29T03:35:02;7.20;;;5.20;;
72205;SDS011;60111;48.286;7.812;2022-07-29T03:37:36;7.87;;;5.40;;
72205;SDS011;60111;48.286;7.812;2022-07-29T03:40:08;5.90;;;5.30;;
72205;SDS011;60111;48.286;7.812;2022-07-29T03:42:43;5.17;;;4.67;;
72205;SDS011;60111;48.286;7.812;2022-07-29T03:48:00;5.30;;;4.80;;
72205;SDS011;60111;48.286;7.812;2022-07-29T03:50:27;5.30;;;4.80;;
72205;SDS011;60111;48.286;7.812;2022-07-29T03:53:02;6.00;;;4.80;;
72205;SDS011;60111;48.286;7.812;2022-07-29T03:55:45;5.10;;;4.60;;
72205;SDS011;60111;48.286;7.812;2022-07-29T03:58:13;4.85;;;4.37;;
72205;SDS011;60111;48.286;7.812;2022-07-29T04:00:46;7.20;;;4.63;;
72205;SDS011;60111;48.286;7.812;2022-07-29T04:03:20;5.73;;;4.77;;
72205;SDS011;60111;48.286;7.812;2022-07-29T04:06:04;8.57;;;5.30;;
72205;SDS011;60111;48.286;7.812;2022-07-29T04:08:38;7.45;;;5.80;;
72205;SDS011;60111;48.286;7.812;2022-07-29T04:11:10;8.55;;;5.50;;
72205;SDS011;60111;48.286;7.812;2022-07-29T04:13:44;7.10;;;5.37;;
72205;SDS011;60111;48.286;7.812;2022-07-29T04:16:16;5.20;;;4.72;;
72205;SDS011;60111;48.286;7.812;2022-07-29T04:18:49;6.92;;;5.40;;
72205;SDS011;60111;48.286;7.812;2022-07-29T04:21:22;8.33;;;5.45;;
72205;SDS011;60111;48.286;7.812;2022-07-29T04:23:54;5.78;;;4.80;;
72205;SDS011;60111;48.286;7.812;2022-07-29T04:26:27;5.80;;;4.65;;
72205;SDS011;60111;48.286;7.812;2022-07-29T04:29:00;8.13;;;5.37;;
72205;SDS011;60111;48.286;7.812;2022-07-29T04:31:33;6.80;;;5.30;;
72205;SDS011;60111;48.286;7.812;2022-07-29T04:34:06;7.85;;;5.75;;
72205;SDS011;60111;48.286;7.812;2022-07-29T04:39:11;8.35;;;5.75;;
72205;SDS011;60111;48.286;7.812;2022-07-29T04:41:44;11.57;;;6.63;;
72205;SDS011;60111;48.286;7.812;2022-07-29T04:44:17;7.73;;;5.73;;
72205;SDS011;60111;48.286;7.812;2022-07-29T04:46:50;7.15;;;5.55;;
72205;SDS011;60111;48.286;7.812;2022-07-29T04:49:23;7.05;;;5.20;;
72205;SDS011;60111;48.286;7.812;2022-07-29T04:51:56;5.90;;;4.97;;
72205;SDS011;60111;48.286;7.812;2022-07-29T04:54:29;7.47;;;5.67;;
72205;SDS011;60111;48.286;7.812;2022-07-29T04:57:01;7.72;;;5.45;;
72205;SDS011;60111;48.286;7.812;2022-07-29T04:59:34;6.42;;;5.28;;
72205;SDS011;60111;48.286;7.812;2022-07-29T05:02:06;9.07;;;5.83;;
72205;SDS011;60111;48.286;7.812;2022-07-29T05:04:39;6.30;;;4.83;;
72205;SDS011;60111;48.286;7.812;2022-07-29T05:07:12;8.48;;;5.47;;
72205;SDS011;60111;48.286;7.812;2022-07-29T05:09:45;9.35;;;5.05;;
72205;SDS011;60111;48.286;7.812;2022-07-29T05:12:17;6.33;;;5.08;;
72205;SDS011;60111;48.286;7.812;2022-07-29T05:14:50;7.53;;;5.85;;
72205;SDS011;60111;48.286;7.812;2022-07-29T05:17:23;9.93;;;5.97;;
72205;SDS011;60111;48.286;7.812;2022-07-29T05:19:55;11.63;;;5.85;;
72205;SDS011;60111;48.286;7.812;2022-07-29T05:22:28;10.35;;;6.40;;
72205;SDS011;60111;48.286;7.812;2022-07-29T05:25:01;11.97;;;5.58;;
72205;SDS011;60111;48.286;7.812;2022-07-29T05:27:35;13.48;;;5.53;;
72205;SDS011;60111;48.286;7.812;2022-07-29T05:30:08;10.23;;;6.00;;
72205;SDS011;60111;48.286;7.812;2022-07-29T05:32:41;24.63;;;6.23;;
72205;SDS011;60111;48.286;7.812;2022-07-29T05:35:14;31.90;;;7.07;;
72205;SDS011;60111;48.286;7.812;2022-07-29T05:37:47;16.52;;;5.72;;
72205;SDS011;60111;48.286;7.812;2022-07-29T05:40:19;5.87;;;4.85;;
72205;SDS011;60111;48.286;7.812;2022-07-29T05:42:52;10.10;;;5.17;;
72205;SDS011;60111;48.286;7.812;2022-07-29T05:45:25;8.65;;;4.08;;
72205;SDS011;60111;48.286;7.812;2022-07-29T05:47:59;4.40;;;4.00;;
72205;SDS011;60111;48.286;7.812;2022-07-29T05:50:31;7.75;;;3.50;;
72205;SDS011;60111;48.286;7.812;2022-07-29T05:53:04;6.58;;;4.00;;
72205;SDS011;60111;48.286;7.812;2022-07-29T05:55:36;4.92;;;3.77;;
72205;SDS011;60111;48.286;7.812;2022-07-29T05:58:09;5.37;;;3.67;;
72205;SDS011;60111;48.286;7.812;2022-07-29T06:00:42;5.87;;;3.58;;
72205;SDS011;60111;48.286;7.812;2022-07-29T06:03:15;6.78;;;3.75;;
72205;SDS011;60111;48.286;7.812;2022-07-29T06:05:47;4.70;;;4.00;;
72205;SDS011;60111;48.286;7.812;2022-07-29T06:08:20;4.62;;;3.72;;
72205;SDS011;60111;48.286;7.812;2022-07-29T06:10:53;4.92;;;3.47;;
72205;SDS011;60111;48.286;7.812;2022-07-29T06:13:25;7.12;;;3.40;;
72205;SDS011;60111;48.286;7.812;2022-07-29T06:15:59;6.45;;;3.22;;
72205;SDS011;60111;48.286;7.812;2022-07-29T06:18:31;4.28;;;3.20;;
72205;SDS011;60111;48.286;7.812;2022-07-29T06:21:07;4.12;;;3.22;;
72205;SDS011;60111;48.286;7.812;2022-07-29T06:23:41;8.40;;;3.80;;
72205;SDS011;60111;48.286;7.812;2022-07-29T06:26:14;5.83;;;3.17;;
72205;SDS011;60111;48.286;7.812;2022-07-29T06:28:47;7.20;;;3.37;;
72205;SDS011;60111;48.286;7.812;2022-07-29T06:31:20;5.47;;;3.20;;
72205;SDS011;60111;48.286;7.812;2022-07-29T06:33:52;5.65;;;3.52;;
72205;SDS011;60111;48.286;7.812;2022-07-29T06:36:25;6.90;;;3.23;;
72205;SDS011;60111;48.286;7.812;2022-07-29T06:38:57;5.90;;;3.42;;
72205;SDS011;60111;48.286;7.812;2022-07-29T06:41:30;6.47;;;3.65;;
72205;SDS011;60111;48.286;7.812;2022-07-29T06:44:03;8.78;;;4.03;;
72205;SDS011;60111;48.286;7.812;2022-07-29T06:46:36;6.63;;;3.60;;
72205;SDS011;60111;48.286;7.812;2022-07-29T06:49:09;5.90;;;3.70;;
72205;SDS011;60111;48.286;7.812;2022-07-29T06:51:43;10.40;;;3.13;;
72205;SDS011;60111;48.286;7.812;2022-07-29T06:54:15;3.58;;;3.27;;
72205;SDS011;60111;48.286;7.812;2022-07-29T06:56:48;4.92;;;3.72;;
72205;SDS011;60111;48.286;7.812;2022-07-29T06:59:21;10.00;;;3.12;;
72205;SDS011;60111;48.286;7.812;2022-07-29T07:01:53;6.87;;;3.20;;
72205;SDS011;60111;48.286;7.812;2022-07-29T07:04:26;7.17;;;3.35;;
72205;SDS011;60111;48.286;7.812;2022-07-29T07:06:59;8.55;;;3.40;;
72205;SDS011;60111;48.286;7.812;2022-07-29T07:09:31;9.90;;;3.08;;
72205;SDS011;60111;48.286;7.812;2022-07-29T07:12:04;10.08;;;3.15;;
72205;SDS011;60111;48.286;7.812;2022-07-29T07:14:37;6.12;;;2.80;;
72205;SDS011;60111;48.286;7.812;2022-07-29T07:17:11;7.70;;;3.42;;
72205;SDS011;60111;48.286;7.812;2022-07-29T07:19:44;5.77;;;3.10;;
72205;SDS011;60111;48.286;7.812;2022-07-29T07:22:16;7.90;;;2.80;;
72205;SDS011;60111;48.286;7.812;2022-07-29T07:24:49;7.25;;;2.77;;
72205;SDS011;60111;48.286;7.812;2022-07-29T07:27:22;6.63;;;3.00;;
72205;SDS011;60111;48.286;7.812;2022-07-29T07:29:54;6.58;;;3.00;;
72205;SDS011;60111;48.286;7.812;2022-07-29T07:32:27;9.25;;;2.80;;
72205;SDS011;60111;48.286;7.812;2022-07-29T07:35:00;4.00;;;3.12;;
72205;SDS011;60111;48.286;7.812;2022-07-29T07:37:34;9.08;;;3.08;;
72205;SDS011;60111;48.286;7.812;2022-07-29T07:40:08;6.03;;;2.75;;
72205;SDS011;60111;48.286;7.812;2022-07-29T07:42:45;8.40;;;3.13;;
72205;SDS011;60111;48.286;7.812;2022-07-29T07:45:18;5.72;;;2.77;;
72205;SDS011;60111;48.286;7.812;2022-07-29T07:47:51;11.35;;;3.30;;
72205;SDS011;60111;48.286;7.812;2022-07-29T07:50:25;3.98;;;2.98;;
72205;SDS011;60111;48.286;7.812;2022-07-29T07:55:30;4.67;;;3.15;;
72205;SDS011;60111;48.286;7.812;2022-07-29T07:58:02;8.98;;;3.33;;
72205;SDS011;60111;48.286;7.812;2022-07-29T08:00:35;7.70;;;3.10;;
72205;SDS011;60111;48.286;7.812;2022-07-29T08:03:08;6.03;;;3.05;;
72205;SDS011;60111;48.286;7.812;2022-07-29T08:05:42;8.60;;;3.53;;
72205;SDS011;60111;48.286;7.812;2022-07-29T08:08:14;5.33;;;3.00;;
72205;SDS011;60111;48.286;7.812;2022-07-29T08:10:47;8.47;;;3.10;;
72205;SDS011;60111;48.286;7.812;2022-07-29T08:13:29;4.47;;;3.10;;
72205;SDS011;60111;48.286;7.812;2022-07-29T08:16:02;5.20;;;3.23;;
72205;SDS011;60111;48.286;7.812;2022-07-29T08:18:45;5.35;;;3.25;;
72205;SDS011;60111;48.286;7.812;2022-07-29T08:21:18;6.10;;;3.20;;
72205;SDS011;60111;48.286;7.812;2022-07-29T08:23:51;7.07;;;3.17;;
72205;SDS011;60111;48.286;7.812;2022-07-29T08:26:24;5.90;;;3.17;;
72205;SDS011;60111;48.286;7.812;2022-07-29T08:28:56;9.68;;;3.15;;
72205;SDS011;60111;48.286;7.812;2022-07-29T08:31:29;6.20;;;2.87;;
72205;SDS011;60111;48.286;7.812;2022-07-29T08:34:02;7.53;;;3.60;;
72205;SDS011;60111;48.286;7.812;2022-07-29T08:36:35;6.23;;;2.77;;
72205;SDS011;60111;48.286;7.812;2022-07-29T08:39:07;5.80;;;3.02;;
72205;SDS011;60111;48.286;7.812;2022-07-29T08:41:40;12.58;;;3.55;;
72205;SDS011;60111;48.286;7.812;2022-07-29T08:44:15;14.70;;;3.90;;
72205;SDS011;60111;48.286;7.812;2022-07-29T08:46:49;11.88;;;3.50;;
72205;SDS011;60111;48.286;7.812;2022-07-29T08:49:21;8.03;;;3.37;;
72205;SDS011;60111;48.286;7.812;2022-07-29T08:51:54;9.93;;;3.22;;
72205;SDS011;60111;48.286;7.812;2022-07-29T08:54:29;7.92;;;2.95;;
72205;SDS011;60111;48.286;7.812;2022-07-29T08:57:02;7.17;;;3.37;;
72205;SDS011;60111;48.286;7.812;2022-07-29T08:59:36;4.10;;;3.00;;
72205;SDS011;60111;48.286;7.812;2022-07-29T09:02:19;4.60;;;2.80;;
72205;SDS011;60111;48.286;7.812;2022-07-29T09:04:50;10.03;;;3.00;;
72205;SDS011;60111;48.286;7.812;2022-07-29T09:07:22;6.83;;;3.30;;
72205;SDS011;60111;48.286;7.812;2022-07-29T09:09:55;6.20;;;3.10;;
72205;SDS011;60111;48.286;7.812;2022-07-29T09:12:29;12.45;;;2.80;;
72205;SDS011;60111;48.286;7.812;2022-07-29T09:15:02;9.20;;;3.10;;
72205;SDS011;60111;48.286;7.812;2022-07-29T09:17:41;6.30;;;3.10;;
72205;SDS011;60111;48.286;7.812;2022-07-29T09:20:20;5.78;;;3.17;;
72205;SDS011;60111;48.286;7.812;2022-07-29T09:22:53;5.00;;;2.70;;
72205;SDS011;60111;48.286;7.812;2022-07-29T09:25:38;6.08;;;2.75;;
72205;SDS011;60111;48.286;7.812;2022-07-29T09:28:07;6.75;;;3.20;;
72205;SDS011;60111;48.286;7.812;2022-07-29T09:33:32;5.00;;;2.93;;
72205;SDS011;60111;48.286;7.812;2022-07-29T09:36:07;4.25;;;2.70;;
72205;SDS011;60111;48.286;7.812;2022-07-29T09:38:42;4.42;;;3.00;;
72205;SDS011;60111;48.286;7.812;2022-07-29T09:41:16;4.40;;;3.30;;
72205;SDS011;60111;48.286;7.812;2022-07-29T09:43:58;8.98;;;2.85;;
72205;SDS011;60111;48.286;7.812;2022-07-29T09:46:32;10.20;;;3.37;;
72205;SDS011;60111;48.286;7.812;2022-07-29T09:49:10;7.80;;;3.47;;
72205;SDS011;60111;48.286;7.812;2022-07-29T09:51:40;7.97;;;3.03;;
72205;SDS011;60111;48.286;7.812;2022-07-29T09:54:23;4.92;;;3.00;;
72205;SDS011;60111;48.286;7.812;2022-07-29T09:56:58;4.20;;;2.98;;
72205;SDS011;60111;48.286;7.812;2022-07-29T09:59:30;5.15;;;3.10;;
72205;SDS011;60111;48.286;7.812;2022-07-29T10:02:13;9.55;;;3.20;;
72205;SDS011;60111;48.286;7.812;2022-07-29T10:04:46;5.23;;;3.03;;
72205;SDS011;60111;48.286;7.812;2022-07-29T10:07:19;11.57;;;2.95;;
72205;SDS011;60111;48.286;7.812;2022-07-29T10:09:55;6.72;;;2.77;;
72205;SDS011;60111;48.286;7.812;2022-07-29T10:12:29;8.88;;;2.50;;
72205;SDS011;60111;48.286;7.812;2022-07-29T10:15:02;8.30;;;2.92;;
72205;SDS011;60111;48.286;7.812;2022-07-29T10:20:08;8.53;;;3.00;;
72205;SDS011;60111;48.286;7.812;2022-07-29T10:22:41;5.75;;;2.85;;
72205;SDS011;60111;48.286;7.812;2022-07-29T10:25:15;5.10;;;2.87;;
72205;SDS011;60111;48.286;7.812;2022-07-29T10:27:48;14.18;;;3.10;;
72205;SDS011;60111;48.286;7.812;2022-07-29T10:30:25;6.35;;;3.00;;
72205;SDS011;60111;48.286;7.812;2022-07-29T10:33:08;8.00;;;2.72;;
72205;SDS011;60111;48.286;7.812;2022-07-29T10:42:01;9.00;;;3.22;;
72205;SDS011;60111;48.286;7.812;2022-07-29T10:44:34;7.10;;;3.00;;
72205;SDS011;60111;48.286;7.812;2022-07-29T10:47:19;6.22;;;2.85;;
72205;SDS011;60111;48.286;7.812;2022-07-29T10:49:56;8.78;;;2.70;;
72205;SDS011;60111;48.286;7.812;2022-07-29T10:55:37;4.83;;;2.57;;
72205;SDS011;60111;48.286;7.812;2022-07-29T10:58:22;4.72;;;2.77;;
72205;SDS011;60111;48.286;7.812;2022-07-29T11:00:56;5.67;;;2.50;;
72205;SDS011;60111;48.286;7.812;2022-07-29T11:03:43;6.67;;;2.90;;
72205;SDS011;60111;48.286;7.812;2022-07-29T11:06:18;9.23;;;2.47;;
72205;SDS011;60111;48.286;7.812;2022-07-29T11:09:15;4.60;;;2.37;;
72205;SDS011;60111;48.286;7.812;2022-07-29T11:11:43;5.23;;;2.60;;
72205;SDS011;60111;48.286;7.812;2022-07-29T11:14:16;7.17;;;2.73;;
72205;SDS011;60111;48.286;7.812;2022-07-29T11:16:59;15.23;;;3.00;;
72205;SDS011;60111;48.286;7.812;2022-07-29T11:19:33;7.72;;;2.75;;
72205;SDS011;60111;48.286;7.812;2022-07-29T11:22:07;6.43;;;2.60;;
72205;SDS011;60111;48.286;7.812;2022-07-29T11:24:41;3.25;;;2.47;;
72205;SDS011;60111;48.286;7.812;2022-07-29T11:27:15;5.92;;;2.65;;
72205;SDS011;60111;48.286;7.812;2022-07-29T11:29:51;8.90;;;2.80;;
72205;SDS011;60111;48.286;7.812;2022-07-29T11:32:36;4.92;;;2.65;;
72205;SDS011;60111;48.286;7.812;2022-07-29T11:35:16;3.87;;;2.47;;
72205;SDS011;60111;48.286;7.812;2022-07-29T11:38:25;5.65;;;2.80;;
72205;SDS011;60111;48.286;7.812;2022-07-29T11:46:45;9.28;;;2.98;;
72205;SDS011;60111;48.286;7.812;2022-07-29T11:49:23;8.90;;;2.52;;
72205;SDS011;60111;48.286;7.812;2022-07-29T11:51:57;5.55;;;2.60;;
72205;SDS011;60111;48.286;7.812;2022-07-29T11:54:33;4.72;;;2.42;;
72205;SDS011;60111;48.286;7.812;2022-07-29T11:57:06;8.20;;;2.63;;
72205;SDS011;60111;48.286;7.812;2022-07-29T11:59:40;3.85;;;2.30;;
72205;SDS011;60111;48.286;7.812;2022-07-29T12:02:14;4.53;;;2.57;;
72205;SDS011;60111;48.286;7.812;2022-07-29T12:04:50;3.43;;;2.60;;
72205;SDS011;60111;48.286;7.812;2022-07-29T12:07:31;3.45;;;2.30;;
72205;SDS011;60111;48.286;7.812;2022-07-29T12:10:05;5.60;;;2.70;;
72205;SDS011;60111;48.286;7.812;2022-07-29T12:12:39;10.87;;;2.83;;
72205;SDS011;60111;48.286;7.812;2022-07-29T12:15:12;4.92;;;2.90;;
72205;SDS011;60111;48.286;7.812;2022-07-29T12:17:48;7.60;;;3.12;;
72205;SDS011;60111;48.286;7.812;2022-07-29T12:20:22;7.77;;;2.60;;
72205;SDS011;60111;48.286;7.812;2022-07-29T12:22:56;7.72;;;2.80;;
72205;SDS011;60111;48.286;7.812;2022-07-29T12:25:32;6.45;;;3.02;;
72205;SDS011;60111;48.286;7.812;2022-07-29T12:28:06;4.75;;;2.60;;
72205;SDS011;60111;48.286;7.812;2022-07-29T12:30:50;8.13;;;2.65;;
72205;SDS011;60111;48.286;7.812;2022-07-29T12:33:24;7.72;;;2.45;;
72205;SDS011;60111;48.286;7.812;2022-07-29T12:36:01;5.58;;;2.47;;
72205;SDS011;60111;48.286;7.812;2022-07-29T12:38:35;8.35;;;2.60;;
72205;SDS011;60111;48.286;7.812;2022-07-29T12:41:08;8.80;;;2.60;;
72205;SDS011;60111;48.286;7.812;2022-07-29T12:43:51;8.17;;;2.50;;
72205;SDS011;60111;48.286;7.812;2022-07-29T12:46:25;4.13;;;2.60;;
72205;SDS011;60111;48.286;7.812;2022-07-29T12:48:58;4.58;;;2.40;;
72205;SDS011;60111;48.286;7.812;2022-07-29T12:51:31;3.87;;;2.62;;
72205;SDS011;60111;48.286;7.812;2022-07-29T12:54:11;7.15;;;2.50;;
72205;SDS011;60111;48.286;7.812;2022-07-29T12:56:46;4.62;;;2.40;;
72205;SDS011;60111;48.286;7.812;2022-07-29T12:59:21;8.65;;;2.67;;
72205;SDS011;60111;48.286;7.812;2022-07-29T13:01:54;5.12;;;2.60;;
72205;SDS011;60111;48.286;7.812;2022-07-29T13:04:28;6.65;;;2.75;;
72205;SDS011;60111;48.286;7.812;2022-07-29T13:07:03;6.58;;;3.00;;
72205;SDS011;60111;48.286;7.812;2022-07-29T13:12:13;4.37;;;2.77;;
72205;SDS011;60111;48.286;7.812;2022-07-29T13:14:47;6.10;;;2.93;;
72205;SDS011;60111;48.286;7.812;2022-07-29T13:17:21;5.35;;;2.60;;
72205;SDS011;60111;48.286;7.812;2022-07-29T13:20:07;3.67;;;2.70;;
72205;SDS011;60111;48.286;7.812;2022-07-29T13:22:46;6.97;;;2.77;;
72205;SDS011;60111;48.286;7.812;2022-07-29T13:25:25;7.25;;;3.00;;
72205;SDS011;60111;48.286;7.812;2022-07-29T13:28:00;7.08;;;3.02;;
72205;SDS011;60111;48.286;7.812;2022-07-29T13:30:32;7.47;;;2.77;;
72205;SDS011;60111;48.286;7.812;2022-07-29T13:33:06;7.00;;;2.63;;
72205;SDS011;60111;48.286;7.812;2022-07-29T13:35:38;4.03;;;2.77;;
72205;SDS011;60111;48.286;7.812;2022-07-29T13:38:11;4.83;;;2.83;;
72205;SDS011;60111;48.286;7.812;2022-07-29T13:40:43;5.78;;;2.85;;
72205;SDS011;60111;48.286;7.812;2022-07-29T13:43:16;8.03;;;3.08;;
72205;SDS011;60111;48.286;7.812;2022-07-29T13:45:49;11.83;;;3.23;;
72205;SDS011;60111;48.286;7.812;2022-07-29T13:48:22;9.03;;;3.43;;
72205;SDS011;60111;48.286;7.812;2022-07-29T13:50:56;8.23;;;2.80;;
72205;SDS011;60111;48.286;7.812;2022-07-29T13:53:28;6.42;;;3.10;;
72205;SDS011;60111;48.286;7.812;2022-07-29T13:56:01;5.50;;;3.22;;
72205;SDS011;60111;48.286;7.812;2022-07-29T13:58:35;4.78;;;2.55;;
72205;SDS011;60111;48.286;7.812;2022-07-29T14:01:08;10.73;;;3.10;;
72205;SDS011;60111;48.286;7.812;2022-07-29T14:03:41;8.33;;;2.95;;
72205;SDS011;60111;48.286;7.812;2022-07-29T14:06:13;11.38;;;3.22;;
72205;SDS011;60111;48.286;7.812;2022-07-29T14:08:46;8.05;;;2.77;;
72205;SDS011;60111;48.286;7.812;2022-07-29T14:11:19;6.65;;;2.47;;
72205;SDS011;60111;48.286;7.812;2022-07-29T14:13:52;6.20;;;2.50;;
72205;SDS011;60111;48.286;7.812;2022-07-29T14:16:24;9.55;;;2.70;;
72205;SDS011;60111;48.286;7.812;2022-07-29T14:18:57;5.63;;;3.00;;
72205;SDS011;60111;48.286;7.812;2022-07-29T14:21:30;5.08;;;2.70;;
72205;SDS011;60111;48.286;7.812;2022-07-29T14:24:04;6.12;;;2.83;;
72205;SDS011;60111;48.286;7.812;2022-07-29T14:26:37;5.35;;;2.42;;
72205;SDS011;60111;48.286;7.812;2022-07-29T14:29:10;4.20;;;2.37;;
72205;SDS011;60111;48.286;7.812;2022-07-29T14:31:42;6.30;;;2.70;;
72205;SDS011;60111;48.286;7.812;2022-07-29T14:34:15;8.63;;;2.70;;
72205;SDS011;60111;48.286;7.812;2022-07-29T14:36:48;7.33;;;2.70;;
72205;SDS011;60111;48.286;7.812;2022-07-29T14:39:21;3.47;;;2.08;;
72205;SDS011;60111;48.286;7.812;2022-07-29T14:41:54;4.47;;;2.27;;
72205;SDS011;60111;48.286;7.812;2022-07-29T14:44:26;5.25;;;2.40;;
72205;SDS011;60111;48.286;7.812;2022-07-29T14:49:33;5.87;;;2.55;;
72205;SDS011;60111;48.286;7.812;2022-07-29T14:52:06;12.28;;;3.05;;
72205;SDS011;60111;48.286;7.812;2022-07-29T14:54:39;4.72;;;2.52;;
72205;SDS011;60111;48.286;7.812;2022-07-29T14:57:12;15.30;;;2.98;;
72205;SDS011;60111;48.286;7.812;2022-07-29T14:59:44;4.33;;;2.50;;
72205;SDS011;60111;48.286;7.812;2022-07-29T15:02:17;4.58;;;2.47;;
72205;SDS011;60111;48.286;7.812;2022-07-29T15:04:50;4.10;;;2.47;;
72205;SDS011;60111;48.286;7.812;2022-07-29T15:07:23;10.10;;;2.27;;
72205;SDS011;60111;48.286;7.812;2022-07-29T15:09:56;7.67;;;2.77;;
72205;SDS011;60111;48.286;7.812;2022-07-29T15:12:28;10.28;;;2.22;;
72205;SDS011;60111;48.286;7.812;2022-07-29T15:15:02;10.30;;;2.50;;
72205;SDS011;60111;48.286;7.812;2022-07-29T15:17:34;3.65;;;2.17;;
72205;SDS011;60111;48.286;7.812;2022-07-29T15:20:08;8.97;;;2.50;;
72205;SDS011;60111;48.286;7.812;2022-07-29T15:22:42;5.37;;;2.33;;
72205;SDS011;60111;48.286;7.812;2022-07-29T15:25:15;4.42;;;2.47;;
72205;SDS011;60111;48.286;7.812;2022-07-29T15:27:48;5.12;;;2.47;;
72205;SDS011;60111;48.286;7.812;2022-07-29T15:30:21;3.80;;;2.20;;
72205;SDS011;60111;48.286;7.812;2022-07-29T15:32:55;5.62;;;2.30;;
72205;SDS011;60111;48.286;7.812;2022-07-29T15:35:28;2.80;;;1.92;;
72205;SDS011;60111;48.286;7.812;2022-07-29T15:38:01;8.03;;;2.50;;
72205;SDS011;60111;48.286;7.812;2022-07-29T15:40:33;7.28;;;2.08;;
72205;SDS011;60111;48.286;7.812;2022-07-29T15:45:40;8.33;;;2.40;;
72205;SDS011;60111;48.286;7.812;2022-07-29T15:48:15;10.90;;;2.10;;
72205;SDS011;60111;48.286;7.812;2022-07-29T15:50:48;4.70;;;2.10;;
72205;SDS011;60111;48.286;7.812;2022-07-29T15:53:20;4.90;;;2.27;;
72205;SDS011;60111;48.286;7.812;2022-07-29T15:55:53;3.55;;;1.67;;
72205;SDS011;60111;48.286;7.812;2022-07-29T15:58:27;4.17;;;2.13;;
72205;SDS011;60111;48.286;7.812;2022-07-29T16:01:00;7.13;;;1.93;;
72205;SDS011;60111;48.286;7.812;2022-07-29T16:03:33;12.25;;;2.00;;
72205;SDS011;60111;48.286;7.812;2022-07-29T16:06:09;6.20;;;1.90;;
72205;SDS011;60111;48.286;7.812;2022-07-29T16:08:41;6.70;;;1.80;;
72205;SDS011;60111;48.286;7.812;2022-07-29T16:11:15;3.72;;;2.00;;
72205;SDS011;60111;48.286;7.812;2022-07-29T16:13:48;5.80;;;1.67;;
72205;SDS011;60111;48.286;7.812;2022-07-29T16:16:20;3.00;;;1.90;;
72205;SDS011;60111;48.286;7.812;2022-07-29T16:18:53;7.33;;;1.85;;